Time;durP1;ratioP1;P1;durP2;ratioP2;P2;SDS_P1;SDS_P2;PMS_P1;PMS_P2;Temp;Humidity;BMP_temperature;BMP_pressure;BME280_temperature;BME280_humidity;BME280_pressure;Samples;Min_cycle;Max_cycle;Signal;HPM_P1;HPM_P2
2023/01/15 00:01:41;;;;;;;;;;;;;;;;;;5037795;28;6971;-71
2023/01/15 00:07:34;;;;;;;;;;;;;;;;;;5044094;28;7140;-71
2023/01/15 00:13:12;;;;;;;;;;;;;;;;;;5037391;28;7122;-71
2023/01/15 00:15:38;;;;;;;;;;;;;;;;;;5037297;28;7309;-71
2023/01/15 00:18:03;;;;;;;;;;;;;;;;;;5020898;28;7197;-71
2023/01/15 00:21:02;;;;;;;;;;;;;;;;;;5038141;28;6956;-71
2023/01/15 00:32:56;;;;;;;;;;;;;;;;;;5057271;28;6929;-71
2023/01/15 00:35:22;;;;;;;;;;;;;;;;;;5057920;28;6995;-71
2023/01/15 00:38:00;;;;;;;;;;;;;;;;;;5056712;28;7467;-71
2023/01/15 00:40:25;;;;;;;;;;;;;;;;;;5057171;28;6950;-71
2023/01/15 00:42:51;;;;;;;;;;;;;;;;;;5056858;28;7589;-71
2023/01/15 00:45:16;;;;;;;;;;;;;;;;;;5057005;28;7381;-71
2023/01/15 00:50:46;;;;;;;;;;;;;;;;;;5057080;28;6684;-71
2023/01/15 00:53:11;;;;;;;;;;;;;;;;;;5056549;28;7196;-71
2023/01/15 00:55:37;;;;;;;;;;;;;;;;;;5057699;28;7073;-71
2023/01/15 01:01:18;;;;;;;;;;;;;;;;;;5057029;28;6974;-71
2023/01/15 01:03:47;;;;;;;;;;;;;;;;;;5056561;28;7238;-71
2023/01/15 01:06:15;;;;;;;;;;;;;;;;;;5056695;28;6961;-71
2023/01/15 01:09:11;;;;;;;;;;;;;;;;;;5056232;28;7967;-71
2023/01/15 01:11:37;;;;;;;;;;;;;;;;;;5056835;28;7821;-70
2023/01/15 01:14:17;;;;;;;;;;;;;;;;;;5056097;28;7005;-70
2023/01/15 01:16:43;;;;;;;;;;;;;;;;;;5056470;28;7169;-71
2023/01/15 01:22:29;;;;;;;;;;;;;;;;;;5056025;28;6911;-70
2023/01/15 01:25:01;;;;;;;;;;;;;;;;;;5036360;28;7242;-69
2023/01/15 01:27:27;;;;;;;;;;;;;;;;;;5036304;28;7404;-71
2023/01/15 01:35:59;;;;;;;;;;;;;;;;;;5036459;28;6737;-71
2023/01/15 01:38:24;;;;;;;;;;;;;;;;;;5018190;28;7182;-71
2023/01/15 01:40:50;;;;;;;;;;;;;;;;;;5036036;28;7385;-71
2023/01/15 01:43:20;;;;;;;;;;;;;;;;;;5035629;28;6938;-70
2023/01/15 01:45:52;;;;;;;;;;;;;;;;;;5035963;28;7187;-71
2023/01/15 01:51:23;;;;;;;;;;;;;;;;;;5035471;28;6941;-71
2023/01/15 01:57:07;;;;;;;;;;;;;;;;;;5035611;28;7082;-70
2023/01/15 01:59:33;;;;;;;;;;;;;;;;;;5035278;28;7468;-71
2023/01/15 02:02:18;;;;;;;;;;;;;;;;;;5035527;28;7222;-71
2023/01/15 02:04:43;;;;;;;;;;;;;;;;;;5035490;28;7456;-71
2023/01/15 02:10:23;;;;;;;;;;;;;;;;;;5035148;28;7438;-71
2023/01/15 02:13:00;;;;;;;;;;;;;;;;;;5035395;28;7117;-71
2023/01/15 02:18:53;;;;;;;;;;;;;;;;;;5035424;28;6911;-71
2023/01/15 02:21:18;;;;;;;;;;;;;;;;;;5035248;28;7123;-71
2023/01/15 02:29:58;;;;;;;;;;;;;;;;;;5055164;28;6933;-70
2023/01/15 02:32:49;;;;;;;;;;;;;;;;;;5055190;28;7195;-70
2023/01/15 02:35:22;;;;;;;;;;;;;;;;;;5055731;28;7270;-70
2023/01/15 02:38:11;;;;;;;;;;;;;;;;;;5055097;28;7269;-71
2023/01/15 02:40:39;;;;;;;;;;;;;;;;;;5070258;28;7170;-71
2023/01/15 02:43:06;;;;;;;;;;;;;;;;;;5054755;28;7158;-71
2023/01/15 02:48:59;;;;;;;;;;;;;;;;;;5054618;28;6699;-71
2023/01/15 02:51:45;;;;;;;;;;;;;;;;;;5054650;28;7187;-71
2023/01/15 02:54:15;;;;;;;;;;;;;;;;;;5054700;28;7364;-71
2023/01/15 02:57:04;;;;;;;;;;;;;;;;;;5054638;28;7242;-71
2023/01/15 02:59:35;;;;;;;;;;;;;;;;;;5054287;28;7177;-71
2023/01/15 03:02:04;;;;;;;;;;;;;;;;;;5054469;28;6937;-71
2023/01/15 03:05:05;;;;;;;;;;;;;;;;;;5054927;28;6949;-71
2023/01/15 03:07:36;;;;;;;;;;;;;;;;;;5054658;28;7636;-71
2023/01/15 03:10:28;;;;;;;;;;;;;;;;;;5055049;28;7236;-71
2023/01/15 03:13:04;;;;;;;;;;;;;;;;;;5054506;28;7059;-71
2023/01/15 03:18:37;;;;;;;;;;;;;;;;;;5054704;28;6710;-71
2023/01/15 03:21:06;;;;;;;;;;;;;;;;;;5054444;28;7565;-71
2023/01/15 03:23:36;;;;;;;;;;;;;;;;;;5054283;28;7459;-71
2023/01/15 03:29:08;;;;;;;;;;;;;;;;;;5054241;28;7403;-70
2023/01/15 03:37:45;;;;;;;;;;;;;;;;;;5054176;28;6827;-70
2023/01/15 03:40:27;;;;;;;;;;;;;;;;;;5053913;28;7205;-70
2023/01/15 03:45:48;;;;;;;;;;;;;;;;;;5054255;28;6984;-71
2023/01/15 03:48:23;;;;;;;;;;;;;;;;;;5054196;28;7218;-71
2023/01/15 03:50:52;;;;;;;;;;;;;;;;;;5053955;28;6968;-71
2023/01/15 03:53:18;;;;;;;;;;;;;;;;;;5054202;28;7304;-71
2023/01/15 03:56:05;;;;;;;;;;;;;;;;;;5054113;28;7124;-71
2023/01/15 03:58:36;;;;;;;;;;;;;;;;;;5054975;28;7255;-71
2023/01/15 04:01:02;;;;;;;;;;;;;;;;;;5054037;28;7173;-71
2023/01/15 04:03:31;;;;;;;;;;;;;;;;;;5069434;28;8422;-69
2023/01/15 04:06:00;;;;;;;;;;;;;;;;;;5052634;28;8515;-70
2023/01/15 04:08:41;;;;;;;;;;;;;;;;;;5053868;28;6935;-70
2023/01/15 04:11:07;;;;;;;;;;;;;;;;;;5053787;28;8162;-70
2023/01/15 04:13:35;;;;;;;;;;;;;;;;;;5055769;28;7364;-70
2023/01/15 04:16:01;;;;;;;;;;;;;;;;;;5058458;28;7127;-70
2023/01/15 04:18:27;;;;;;;;;;;;;;;;;;5057598;28;7173;-70
2023/01/15 04:23:56;;;;;;;;;;;;;;;;;;5056866;28;7463;-70
2023/01/15 04:29:39;;;;;;;;;;;;;;;;;;5057152;28;6925;-70
2023/01/15 04:32:04;;;;;;;;;;;;;;;;;;5057083;28;7036;-70
2023/01/15 04:34:30;;;;;;;;;;;;;;;;;;5057347;28;6807;-70
2023/01/15 04:36:56;;;;;;;;;;;;;;;;;;5057158;28;7395;-70
2023/01/15 04:39:22;;;;;;;;;;;;;;;;;;5057123;28;7083;-70
2023/01/15 04:44:45;;;;;;;;;;;;;;;;;;5057068;28;6810;-70
2023/01/15 04:47:11;;;;;;;;;;;;;;;;;;5056723;28;7138;-70
2023/01/15 04:49:36;;;;;;;;;;;;;;;;;;5056990;28;7569;-70
2023/01/15 04:55:05;;;;;;;;;;;;;;;;;;5056672;28;6683;-70
2023/01/15 05:00:33;;;;;;;;;;;;;;;;;;5056560;28;6939;-70
2023/01/15 05:06:02;;;;;;;;;;;;;;;;;;5056360;28;6938;-69
2023/01/15 05:09:03;;;;;;;;;;;;;;;;;;5056582;28;7128;-70
2023/01/15 05:11:28;;;;;;;;;;;;;;;;;;5056402;28;7117;-70
2023/01/15 05:13:55;;;;;;;;;;;;;;;;;;5056491;28;7354;-70
2023/01/15 05:16:25;;;;;;;;;;;;;;;;;;5056426;28;7236;-70
2023/01/15 05:18:51;;;;;;;;;;;;;;;;;;5056420;28;7224;-70
2023/01/15 05:21:35;;;;;;;;;;;;;;;;;;5056101;28;7014;-71
2023/01/15 05:27:04;;;;;;;;;;;;;;;;;;5056198;28;6692;-70
2023/01/15 05:29:30;;;;;;;;;;;;;;;;;;5056245;28;7125;-70
2023/01/15 05:32:12;;;;;;;;;;;;;;;;;;5055755;28;7103;-70
2023/01/15 05:34:38;;;;;;;;;;;;;;;;;;5056136;28;7146;-70
2023/01/15 05:37:03;;;;;;;;;;;;;;;;;;5056581;28;7105;-70
2023/01/15 05:42:32;;;;;;;;;;;;;;;;;;5055464;28;6681;-70
2023/01/15 05:44:57;;;;;;;;;;;;;;;;;;5056008;28;7126;-70
2023/01/15 05:47:23;;;;;;;;;;;;;;;;;;5054472;28;8441;-70
2023/01/15 05:49:49;;;;;;;;;;;;;;;;;;5055842;28;7135;-70
2023/01/15 05:52:14;;;;;;;;;;;;;;;;;;5055682;28;7197;-70
2023/01/15 05:54:40;;;;;;;;;;;;;;;;;;5055662;28;7126;-70
2023/01/15 06:00:08;;;;;;;;;;;;;;;;;;5055389;28;6975;-70
2023/01/15 06:02:34;;;;;;;;;;;;;;;;;;5055341;28;7030;-70
2023/01/15 06:11:10;;;;;;;;;;;;;;;;;;5055199;28;6924;-70
2023/01/15 06:16:38;;;;;;;;;;;;;;;;;;5055146;28;6733;-70
2023/01/15 06:19:05;;;;;;;;;;;;;;;;;;5055014;28;7028;-70
2023/01/15 06:21:53;;;;;;;;;;;;;;;;;;5055125;28;7279;-70
2023/01/15 06:24:50;;;;;;;;;;;;;;;;;;5054789;28;7416;-70
2023/01/15 06:27:15;;;;;;;;;;;;;;;;;;5055041;28;7195;-70
2023/01/15 06:29:41;;;;;;;;;;;;;;;;;;5055046;28;7132;-70
2023/01/15 06:35:09;;;;;;;;;;;;;;;;;;5054472;28;6826;-71
2023/01/15 06:37:42;;;;;;;;;;;;;;;;;;5054829;28;7184;-72
2023/01/15 06:40:09;;;;;;;;;;;;;;;;;;5055023;28;7174;-69
2023/01/15 06:48:26;;;;;;;;;;;;;;;;;;5054898;28;6923;-72
2023/01/15 06:53:54;;;;;;;;;;;;;;;;;;5033796;28;7047;-71
2023/01/15 06:56:51;;;;;;;;;;;;;;;;;;5034741;28;7082;-71
2023/01/15 06:59:17;;;;;;;;;;;;;;;;;;5034694;28;7106;-71
2023/01/15 07:01:43;;;;;;;;;;;;;;;;;;5034756;28;7267;-72
2023/01/15 07:04:08;;;;;;;;;;;;;;;;;;5034324;28;6932;-72
2023/01/15 07:06:34;;;;;;;;;;;;;;;;;;5034880;28;7085;-72
2023/01/15 07:09:22;;;;;;;;;;;;;;;;;;5034641;28;7040;-71
2023/01/15 07:11:48;;;;;;;;;;;;;;;;;;5034560;28;7187;-71
2023/01/15 07:14:18;;;;;;;;;;;;;;;;;;5034555;28;7130;-71
2023/01/15 07:16:43;;;;;;;;;;;;;;;;;;5034712;28;7235;-71
2023/01/15 07:19:09;;;;;;;;;;;;;;;;;;5034584;28;7343;-71
2023/01/15 07:21:35;;;;;;;;;;;;;;;;;;5034484;28;7387;-71
2023/01/15 07:27:04;;;;;;;;;;;;;;;;;;5034474;28;6946;-72
2023/01/15 07:29:30;;;;;;;;;;;;;;;;;;5034499;28;6958;-71
2023/01/15 07:35:35;;;;;;;;;;;;;;;;;;5034031;28;6713;-72
2023/01/15 07:38:02;;;;;;;;;;;;;;;;;;5043184;28;7246;-72
2023/01/15 07:49:44;;;;;;;;;;;;;;;;;;5054208;28;7635;-71
2023/01/15 07:52:21;;;;;;;;;;;;;;;;;;5058318;28;6789;-72
2023/01/15 07:57:19;;;;;;;;;;;;;;;;;;4996007;28;7069;-73
2023/01/15 08:02:44;;;;;;;;;;;;;;;;;;5010101;28;7065;-73
2023/01/15 08:08:14;;;;;;;;;;;;;;;;;;5017807;28;6937;-74
2023/01/15 08:22:51;;;;;;;;;;;;;;;;;;4997846;28;7408;-73
2023/01/15 08:25:22;;;;;;;;;;;;;;;;;;4998744;28;7052;-73
2023/01/15 08:27:48;;;;;;;;;;;;;;;;;;4998876;28;7344;-73
2023/01/15 08:30:21;;;;;;;;;;;;;;;;;;4997960;28;7396;-73
2023/01/15 08:32:46;;;;;;;;;;;;;;;;;;4997660;28;6958;-73
2023/01/15 08:35:18;;;;;;;;;;;;;;;;;;4997826;28;7114;-74
2023/01/15 08:37:43;;;;;;;;;;;;;;;;;;4997789;28;7218;-73
2023/01/15 08:43:14;;;;;;;;;;;;;;;;;;4997536;28;6702;-73
2023/01/15 08:48:43;;;;;;;;;;;;;;;;;;4997426;28;6685;-73
2023/01/15 08:54:12;;;;;;;;;;;;;;;;;;4997271;28;6913;-73
2023/01/15 08:59:50;;;;;;;;;;;;;;;;;;4982431;28;6692;-73
2023/01/15 09:02:19;;;;;;;;;;;;;;;;;;4996998;28;7116;-73
2023/01/15 09:04:45;;;;;;;;;;;;;;;;;;4997145;28;6857;-73
2023/01/15 09:07:11;;;;;;;;;;;;;;;;;;4997209;28;7233;-73
2023/01/15 09:09:38;;;;;;;;;;;;;;;;;;4997792;28;7665;-73
2023/01/15 09:12:04;;;;;;;;;;;;;;;;;;4997109;28;7393;-73
2023/01/15 09:17:52;;;;;;;;;;;;;;;;;;4956069;28;7012;-73
2023/01/15 09:20:18;;;;;;;;;;;;;;;;;;4956330;28;7415;-72
2023/01/15 09:25:56;;;;;;;;;;;;;;;;;;4956254;28;6838;-72
2023/01/15 09:31:25;;;;;;;;;;;;;;;;;;4956037;28;6698;-71
2023/01/15 09:33:50;;;;;;;;;;;;;;;;;;5216325;23;7058;-70
2023/01/15 09:36:18;;;;;;;;;;;;;;;;;;5018181;28;8638;-71
2023/01/15 09:38:44;;;;;;;;;;;;;;;;;;5035154;28;6997;-71
2023/01/15 09:42:04;;;;;;;;;;;;;;;;;;5037052;28;7580;-71
2023/01/15 09:44:03;;;;;;;;;;;;;;;;;;5015766;28;7126;-71
2023/01/15 09:49:50;;;;;;;;;;;;;;;;;;5015946;28;6678;-71
2023/01/15 09:55:22;;;;;;;;;;;;;;;;;;5015765;28;6720;-71
2023/01/15 09:58:05;;;;;;;;;;;;;;;;;;5015933;28;7218;-71
2023/01/15 10:00:38;;;;;;;;;;;;;;;;;;5015829;28;7492;-71
2023/01/15 10:03:34;;;;;;;;;;;;;;;;;;5015805;28;7126;-71
2023/01/15 10:06:10;;;;;;;;;;;;;;;;;;5016144;28;7307;-71
2023/01/15 10:08:39;;;;;;;;;;;;;;;;;;5015737;28;6933;-71
2023/01/15 10:11:20;;;;;;;;;;;;;;;;;;5015088;28;7292;-71
2023/01/15 10:16:53;;;;;;;;;;;;;;;;;;5015543;28;6930;-71
2023/01/15 10:19:18;;;;;;;;;;;;;;;;;;5015262;28;7115;-71
2023/01/15 10:24:55;;;;;;;;;;;;;;;;;;5015250;28;6694;-70
2023/01/15 10:30:47;;;;;;;;;;;;;;;;;;5015173;28;6978;-70
2023/01/15 10:36:08;;;;;;;;;;;;;;;;;;5014966;28;7002;-71
2023/01/15 10:38:48;;;;;;;;;;;;;;;;;;5015293;28;7216;-71
2023/01/15 10:41:22;;;;;;;;;;;;;;;;;;5015258;28;7396;-71
2023/01/15 10:44:24;;;;;;;;;;;;;;;;;;5013835;28;8507;-71
2023/01/15 10:46:55;;;;;;;;;;;;;;;;;;5015025;28;7575;-71
2023/01/15 10:49:27;;;;;;;;;;;;;;;;;;5015357;28;7509;-71
2023/01/15 10:51:58;;;;;;;;;;;;;;;;;;5013131;28;6973;-71
2023/01/15 10:54:29;;;;;;;;;;;;;;;;;;4994968;28;7266;-71
2023/01/15 10:57:02;;;;;;;;;;;;;;;;;;4995686;28;7402;-71
2023/01/15 10:59:38;;;;;;;;;;;;;;;;;;4995156;28;6964;-71
2023/01/15 11:05:31;;;;;;;;;;;;;;;;;;4995083;28;7109;-71
2023/01/15 11:07:58;;;;;;;;;;;;;;;;;;4995317;28;7252;-71
2023/01/15 11:10:24;;;;;;;;;;;;;;;;;;4995220;28;7400;-71
2023/01/15 11:21:50;;;;;;;;;;;;;;;;;;4996491;28;6799;-71
2023/01/15 11:24:31;;;;;;;;;;;;;;;;;;4999172;28;7387;-71
2023/01/15 11:26:57;;;;;;;;;;;;;;;;;;4998841;28;7168;-71
2023/01/15 11:29:36;;;;;;;;;;;;;;;;;;4999234;28;7713;-71
2023/01/15 11:32:02;;;;;;;;;;;;;;;;;;5016317;28;7312;-72
2023/01/15 11:34:28;;;;;;;;;;;;;;;;;;5018337;28;7252;-72
2023/01/15 11:37:09;;;;;;;;;;;;;;;;;;5018599;28;7114;-72
2023/01/15 11:39:34;;;;;;;;;;;;;;;;;;5018663;28;7220;-73
2023/01/15 11:51:02;;;;;;;;;;;;;;;;;;5018785;28;6793;-73
2023/01/15 11:56:34;;;;;;;;;;;;;;;;;;5018055;28;6916;-74
2023/01/15 12:08:39;;;;;;;;;;;;;;;;;;4996519;28;6974;-73
2023/01/15 12:11:16;;;;;;;;;;;;;;;;;;4996274;28;7109;-74
2023/01/15 12:23:12;;;;;;;;;;;;;;;;;;4996427;28;6706;-73
2023/01/15 12:25:48;;;;;;;;;;;;;;;;;;4996009;28;7037;-73
2023/01/15 12:28:24;;;;;;;;;;;;;;;;;;4996889;28;8453;-73
2023/01/15 12:31:08;;;;;;;;;;;;;;;;;;4979879;28;7179;-73
2023/01/15 12:33:42;;;;;;;;;;;;;;;;;;4995329;28;7273;-73
2023/01/15 12:36:08;;;;;;;;;;;;;;;;;;4994879;28;7093;-73
2023/01/15 12:39:10;;;;;;;;;;;;;;;;;;4995915;28;7411;-74
2023/01/15 12:45:08;;;;;;;;;;;;;;;;;;5017385;28;6932;-73
2023/01/15 12:47:59;;;;;;;;;;;;;;;;;;4995967;28;7077;-73
2023/01/15 12:50:38;;;;;;;;;;;;;;;;;;4996592;28;7112;-73
2023/01/15 12:53:09;;;;;;;;;;;;;;;;;;4995571;28;7094;-73
2023/01/15 12:55:39;;;;;;;;;;;;;;;;;;4995551;28;7151;-73
2023/01/15 12:58:12;;;;;;;;;;;;;;;;;;4995667;28;7030;-73
2023/01/15 13:03:55;;;;;;;;;;;;;;;;;;4995288;28;7444;-74
2023/01/15 13:06:25;;;;;;;;;;;;;;;;;;4995462;28;7132;-73
2023/01/15 13:09:16;;;;;;;;;;;;;;;;;;4996105;28;7125;-73
2023/01/15 13:11:41;;;;;;;;;;;;;;;;;;4995039;28;7190;-74
2023/01/15 13:14:22;;;;;;;;;;;;;;;;;;4995025;28;7392;-74
2023/01/15 13:17:00;;;;;;;;;;;;;;;;;;4995115;28;7307;-73
2023/01/15 13:25:48;;;;;;;;;;;;;;;;;;5017026;28;6910;-73
2023/01/15 13:31:29;;;;;;;;;;;;;;;;;;5016860;28;6788;-73
2023/01/15 13:33:59;;;;;;;;;;;;;;;;;;5016450;28;7204;-73
2023/01/15 13:36:51;;;;;;;;;;;;;;;;;;5016037;28;7422;-73
2023/01/15 13:39:24;;;;;;;;;;;;;;;;;;5015885;28;8913;-73
2023/01/15 13:44:53;;;;;;;;;;;;;;;;;;5015355;28;6686;-73
2023/01/15 13:56:01;;;;;;;;;;;;;;;;;;5016062;28;6896;-73
2023/01/15 13:58:29;;;;;;;;;;;;;;;;;;4998269;28;6987;-73
2023/01/15 14:04:03;;;;;;;;;;;;;;;;;;5015739;28;6734;-73
2023/01/15 14:06:49;;;;;;;;;;;;;;;;;;5015856;28;7440;-73
2023/01/15 14:09:17;;;;;;;;;;;;;;;;;;5015734;28;7133;-73
2023/01/15 14:12:15;;;;;;;;;;;;;;;;;;5016709;28;7154;-74
2023/01/15 14:18:10;;;;;;;;;;;;;;;;;;4996232;28;7010;-68
2023/01/15 14:23:57;;;;;;;;;;;;;;;;;;4995514;28;6918;-68
2023/01/15 14:29:31;;;;;;;;;;;;;;;;;;4995657;28;7425;-68
2023/01/15 14:31:56;;;;;;;;;;;;;;;;;;4995778;28;7156;-68
2023/01/15 14:34:27;;;;;;;;;;;;;;;;;;4995684;28;7178;-68
2023/01/15 14:40:01;;;;;;;;;;;;;;;;;;4995525;28;6699;-68
2023/01/15 14:45:24;;;;;;;;;;;;;;;;;;4995522;28;6978;-68
2023/01/15 14:47:57;;;;;;;;;;;;;;;;;;4995472;28;7162;-68
2023/01/15 14:50:53;;;;;;;;;;;;;;;;;;4995466;28;7134;-69
2023/01/15 14:53:32;;;;;;;;;;;;;;;;;;4995652;28;6925;-68
2023/01/15 14:59:19;;;;;;;;;;;;;;;;;;4995306;28;6703;-68
2023/01/15 15:01:50;;;;;;;;;;;;;;;;;;4995201;28;7279;-68
2023/01/15 15:07:13;;;;;;;;;;;;;;;;;;4995439;28;7006;-68
2023/01/15 15:09:45;;;;;;;;;;;;;;;;;;4995423;28;7166;-68
2023/01/15 15:12:19;;;;;;;;;;;;;;;;;;4995274;28;6811;-68
2023/01/15 15:14:56;;;;;;;;;;;;;;;;;;4994611;28;7079;-68
2023/01/15 15:17:29;;;;;;;;;;;;;;;;;;4995292;28;7425;-68
2023/01/15 15:26:05;;;;;;;;;;;;;;;;;;4995040;28;6684;-68
2023/01/15 15:31:18;;;;;;;;;;;;;;;;;;4996074;28;6965;-68
2023/01/15 15:33:44;;;;;;;;;;;;;;;;;;4995128;28;7091;-67
2023/01/15 15:36:10;;;;;;;;;;;;;;;;;;5005785;28;6911;-68
2023/01/15 15:50:30;;;;;;;;;;;;;;;;;;4995213;28;6957;-68
2023/01/15 15:53:18;;;;;;;;;;;;;;;;;;4994880;28;7352;-68
2023/01/15 15:55:45;;;;;;;;;;;;;;;;;;4995485;28;7402;-68
2023/01/15 16:04:16;;;;;;;;;;;;;;;;;;4995028;28;6926;-68
2023/01/15 16:06:59;;;;;;;;;;;;;;;;;;4994427;28;7086;-68
2023/01/15 16:09:24;;;;;;;;;;;;;;;;;;4996548;28;6963;-68
2023/01/15 16:11:52;;;;;;;;;;;;;;;;;;4999344;28;7091;-68
2023/01/15 16:17:29;;;;;;;;;;;;;;;;;;4997304;28;6928;-69
2023/01/15 16:19:58;;;;;;;;;;;;;;;;;;4991505;28;7369;-68
2023/01/15 16:22:24;;;;;;;;;;;;;;;;;;4998090;28;7515;-68
2023/01/15 16:24:54;;;;;;;;;;;;;;;;;;4998110;28;6952;-69
2023/01/15 16:27:35;;;;;;;;;;;;;;;;;;4998180;28;7162;-69
2023/01/15 16:30:01;;;;;;;;;;;;;;;;;;4998048;28;7164;-69
2023/01/15 16:32:30;;;;;;;;;;;;;;;;;;4981202;28;7493;-68
2023/01/15 16:35:03;;;;;;;;;;;;;;;;;;4997694;28;6885;-69
2023/01/15 16:37:30;;;;;;;;;;;;;;;;;;5004859;28;7283;-69
2023/01/15 16:40:20;;;;;;;;;;;;;;;;;;4997907;28;6956;-69
2023/01/15 16:42:46;;;;;;;;;;;;;;;;;;4997635;28;7217;-69
2023/01/15 16:45:18;;;;;;;;;;;;;;;;;;4997683;28;7197;-69
2023/01/15 16:48:08;;;;;;;;;;;;;;;;;;4998057;28;7124;-69
2023/01/15 16:50:35;;;;;;;;;;;;;;;;;;4997705;28;7378;-69
2023/01/15 16:53:04;;;;;;;;;;;;;;;;;;4997618;28;7138;-70
2023/01/15 16:55:32;;;;;;;;;;;;;;;;;;4997447;28;7829;-70
2023/01/15 16:58:13;;;;;;;;;;;;;;;;;;4997912;28;7375;-70
2023/01/15 17:01:15;;;;;;;;;;;;;;;;;;4997532;28;7156;-70
2023/01/15 17:03:42;;;;;;;;;;;;;;;;;;4997091;28;7058;-71
2023/01/15 17:06:12;;;;;;;;;;;;;;;;;;4995692;28;7668;-69
2023/01/15 17:11:41;;;;;;;;;;;;;;;;;;4997135;28;7040;-69
2023/01/15 17:14:08;;;;;;;;;;;;;;;;;;4997381;28;7138;-69
2023/01/15 17:16:34;;;;;;;;;;;;;;;;;;4997159;28;8452;-70
2023/01/15 17:22:02;;;;;;;;;;;;;;;;;;4996826;28;6675;-70
2023/01/15 17:24:33;;;;;;;;;;;;;;;;;;4997171;28;7236;-69
2023/01/15 17:27:20;;;;;;;;;;;;;;;;;;4997093;28;7404;-70
2023/01/15 17:29:46;;;;;;;;;;;;;;;;;;4996981;28;7347;-69
2023/01/15 17:32:16;;;;;;;;;;;;;;;;;;4997016;28;6964;-69
2023/01/15 17:34:44;;;;;;;;;;;;;;;;;;4996874;28;7439;-69
2023/01/15 17:37:10;;;;;;;;;;;;;;;;;;4999751;28;8761;-70
2023/01/15 17:39:35;;;;;;;;;;;;;;;;;;5016987;28;7090;-69
2023/01/15 17:42:01;;;;;;;;;;;;;;;;;;5016363;28;6930;-69
2023/01/15 17:44:38;;;;;;;;;;;;;;;;;;5009660;28;7311;-69
2023/01/15 17:47:03;;;;;;;;;;;;;;;;;;4996663;28;7396;-69
2023/01/15 17:49:28;;;;;;;;;;;;;;;;;;4996532;28;7414;-69
2023/01/15 17:52:17;;;;;;;;;;;;;;;;;;4996235;28;8017;-69
2023/01/15 18:05:39;;;;;;;;;;;;;;;;;;4996739;28;6996;-69
2023/01/15 18:08:09;;;;;;;;;;;;;;;;;;4996048;28;6958;-69
2023/01/15 18:10:55;;;;;;;;;;;;;;;;;;4996241;28;7184;-69
2023/01/15 18:13:21;;;;;;;;;;;;;;;;;;4996109;28;7858;-69
2023/01/15 18:15:46;;;;;;;;;;;;;;;;;;4996151;28;7277;-69
2023/01/15 18:18:35;;;;;;;;;;;;;;;;;;4996104;28;7118;-68
2023/01/15 18:21:00;;;;;;;;;;;;;;;;;;4995812;28;8378;-69
2023/01/15 18:23:27;;;;;;;;;;;;;;;;;;4995971;28;7135;-68
2023/01/15 18:26:07;;;;;;;;;;;;;;;;;;4996074;28;7049;-68
2023/01/15 18:28:34;;;;;;;;;;;;;;;;;;4995626;28;7220;-68
2023/01/15 18:31:01;;;;;;;;;;;;;;;;;;4996332;28;7111;-68
2023/01/15 18:33:35;;;;;;;;;;;;;;;;;;4995156;28;8276;-68
2023/01/15 18:36:09;;;;;;;;;;;;;;;;;;4995711;28;6962;-70
2023/01/15 18:38:36;;;;;;;;;;;;;;;;;;4998097;28;7679;-68
2023/01/15 18:47:01;;;;;;;;;;;;;;;;;;4995976;28;6774;-69
2023/01/15 18:55:13;;;;;;;;;;;;;;;;;;4995499;28;6806;-68
2023/01/15 18:57:39;;;;;;;;;;;;;;;;;;4995454;28;7323;-68
2023/01/15 19:00:05;;;;;;;;;;;;;;;;;;4995658;28;7140;-68
2023/01/15 19:05:34;;;;;;;;;;;;;;;;;;4995257;28;7008;-69
2023/01/15 19:07:59;;;;;;;;;;;;;;;;;;4996251;28;7102;-69
2023/01/15 19:10:25;;;;;;;;;;;;;;;;;;4995482;28;7458;-69
2023/01/15 19:12:50;;;;;;;;;;;;;;;;;;4978047;28;8463;-68
2023/01/15 19:20:49;;;;;;;;;;;;;;;;;;4995708;28;6789;-68
2023/01/15 19:23:15;;;;;;;;;;;;;;;;;;4995159;28;7594;-69
2023/01/15 19:25:42;;;;;;;;;;;;;;;;;;4995303;28;7187;-68
2023/01/15 19:28:10;;;;;;;;;;;;;;;;;;4995183;28;7041;-69
2023/01/15 19:30:37;;;;;;;;;;;;;;;;;;4995273;28;7320;-68
2023/01/15 19:33:03;;;;;;;;;;;;;;;;;;4995134;28;7114;-69
2023/01/15 19:35:50;;;;;;;;;;;;;;;;;;4995672;28;7105;-68
2023/01/15 19:55:13;;;;;;;;;;;;;;;;;;5018042;28;6798;-67
2023/01/15 19:57:41;;;;;;;;;;;;;;;;;;5018241;28;7162;-67
2023/01/15 20:00:09;;;;;;;;;;;;;;;;;;5018331;28;7159;-67
2023/01/15 20:02:35;;;;;;;;;;;;;;;;;;5018167;28;7418;-67
2023/01/15 20:05:02;;;;;;;;;;;;;;;;;;5018191;28;6825;-67
2023/01/15 20:07:27;;;;;;;;;;;;;;;;;;5018148;28;7064;-67
2023/01/15 20:09:53;;;;;;;;;;;;;;;;;;5018057;28;7212;-67
2023/01/15 20:15:03;;;;;;;;;;;;;;;;;;5017999;28;6793;-67
2023/01/15 20:17:28;;;;;;;;;;;;;;;;;;5018527;28;6922;-67
2023/01/15 20:19:54;;;;;;;;;;;;;;;;;;5017986;28;7168;-67
2023/01/15 20:25:26;;;;;;;;;;;;;;;;;;5017558;28;6929;-67
2023/01/15 20:34:04;;;;;;;;;;;;;;;;;;5017479;28;6939;-67
2023/01/15 20:39:32;;;;;;;;;;;;;;;;;;5016890;28;7004;-67
2023/01/15 20:50:37;;;;;;;;;;;;;;;;;;5017501;28;6931;-70
2023/01/15 20:53:04;;;;;;;;;;;;;;;;;;5017375;28;7128;-67
2023/01/15 20:55:39;;;;;;;;;;;;;;;;;;5016603;28;7129;-67
2023/01/15 20:58:06;;;;;;;;;;;;;;;;;;4999558;28;7368;-67
2023/01/15 21:00:56;;;;;;;;;;;;;;;;;;5017184;28;7621;-67
2023/01/15 21:06:24;;;;;;;;;;;;;;;;;;5016165;28;6711;-67
2023/01/15 21:14:58;;;;;;;;;;;;;;;;;;5016561;28;7116;-67
2023/01/15 21:17:23;;;;;;;;;;;;;;;;;;4999033;28;8529;-67
2023/01/15 21:19:51;;;;;;;;;;;;;;;;;;5016660;28;7111;-67
2023/01/15 21:22:17;;;;;;;;;;;;;;;;;;5015520;28;7475;-68
2023/01/15 21:24:50;;;;;;;;;;;;;;;;;;4999168;28;8527;-67
2023/01/15 21:27:16;;;;;;;;;;;;;;;;;;5016689;28;7254;-67
2023/01/15 21:29:41;;;;;;;;;;;;;;;;;;5016459;28;7421;-67
2023/01/15 21:32:13;;;;;;;;;;;;;;;;;;5014572;28;7155;-67
2023/01/15 21:34:39;;;;;;;;;;;;;;;;;;5016127;28;7125;-68
2023/01/15 21:37:13;;;;;;;;;;;;;;;;;;5016341;28;6924;-68
2023/01/15 21:39:38;;;;;;;;;;;;;;;;;;4998185;28;8603;-71
2023/01/15 21:45:09;;;;;;;;;;;;;;;;;;5012056;28;6918;-72
2023/01/15 21:47:36;;;;;;;;;;;;;;;;;;5015920;28;7077;-72
2023/01/15 21:50:03;;;;;;;;;;;;;;;;;;5015569;28;7276;-72
2023/01/15 21:55:27;;;;;;;;;;;;;;;;;;5015512;28;7013;-72
2023/01/15 21:57:52;;;;;;;;;;;;;;;;;;5015743;28;7183;-72
2023/01/15 22:00:42;;;;;;;;;;;;;;;;;;5015258;28;7218;-73
2023/01/15 22:03:09;;;;;;;;;;;;;;;;;;4995748;28;8231;-72
2023/01/15 22:08:27;;;;;;;;;;;;;;;;;;5014991;28;6768;-73
2023/01/15 22:10:53;;;;;;;;;;;;;;;;;;5015428;28;7428;-72
2023/01/15 22:16:32;;;;;;;;;;;;;;;;;;5015020;28;7144;-72
2023/01/15 22:18:57;;;;;;;;;;;;;;;;;;5015128;28;7347;-72
2023/01/15 22:21:25;;;;;;;;;;;;;;;;;;5015104;28;7174;-72
2023/01/15 22:23:50;;;;;;;;;;;;;;;;;;5014998;28;7387;-72
2023/01/15 22:26:20;;;;;;;;;;;;;;;;;;5015053;28;7361;-72
2023/01/15 22:29:09;;;;;;;;;;;;;;;;;;5015085;28;7993;-72
2023/01/15 22:31:37;;;;;;;;;;;;;;;;;;5015340;28;7199;-72
2023/01/15 22:34:03;;;;;;;;;;;;;;;;;;5015255;28;7319;-72
2023/01/15 22:36:28;;;;;;;;;;;;;;;;;;5016014;28;7168;-72
2023/01/15 22:38:54;;;;;;;;;;;;;;;;;;5007378;28;7176;-72
2023/01/15 22:44:20;;;;;;;;;;;;;;;;;;4995392;28;7067;-72
2023/01/15 22:46:45;;;;;;;;;;;;;;;;;;4995532;28;7555;-72
2023/01/15 22:49:11;;;;;;;;;;;;;;;;;;4995462;28;7459;-72
2023/01/15 22:51:36;;;;;;;;;;;;;;;;;;4995114;28;7141;-72
2023/01/15 22:54:30;;;;;;;;;;;;;;;;;;4995492;28;7352;-72
2023/01/15 22:56:56;;;;;;;;;;;;;;;;;;4995610;28;7342;-72
2023/01/15 22:59:35;;;;;;;;;;;;;;;;;;4995456;28;7151;-72
2023/01/15 23:02:01;;;;;;;;;;;;;;;;;;4995398;28;7143;-72
2023/01/15 23:04:27;;;;;;;;;;;;;;;;;;4996300;28;7120;-72
2023/01/15 23:06:52;;;;;;;;;;;;;;;;;;4995395;28;7191;-72
2023/01/15 23:09:19;;;;;;;;;;;;;;;;;;4995376;28;7333;-72
2023/01/15 23:14:48;;;;;;;;;;;;;;;;;;4994970;28;7050;-72
2023/01/15 23:17:14;;;;;;;;;;;;;;;;;;4995202;28;7128;-72
2023/01/15 23:25:45;;;;;;;;;;;;;;;;;;4999121;28;6686;-72
2023/01/15 23:28:10;;;;;;;;;;;;;;;;;;4999492;28;7241;-72
2023/01/15 23:30:36;;;;;;;;;;;;;;;;;;4999250;28;6796;-72
2023/01/15 23:33:01;;;;;;;;;;;;;;;;;;4999029;28;7181;-72
2023/01/15 23:35:27;;;;;;;;;;;;;;;;;;4981557;28;7194;-72
2023/01/15 23:38:04;;;;;;;;;;;;;;;;;;5000377;28;7369;-72
2023/01/15 23:40:30;;;;;;;;;;;;;;;;;;5001866;28;7171;-72
2023/01/15 23:48:26;;;;;;;;;;;;;;;;;;5018933;28;6932;-70
2023/01/15 23:50:51;;;;;;;;;;;;;;;;;;5018473;28;7323;-72
2023/01/15 23:56:20;;;;;;;;;;;;;;;;;;5018197;28;6685;-72
2023/01/15 23:58:52;;;;;;;;;;;;;;;;;;5018262;28;7014;-72
